createdAt,value
2019-02-02T00:01:06.218Z,71.20
2019-02-02T00:03:09.202Z,71.30
2019-02-02T00:05:12.106Z,71.40
2019-02-02T00:07:16.324Z,71.60
2019-02-02T00:09:19.979Z,71.60
2019-02-02T00:11:22.963Z,71.60
2019-02-02T00:13:26.683Z,71.60
2019-02-02T00:15:29.579Z,71.60
2019-02-02T00:17:33.267Z,71.70
2019-02-02T00:19:36.215Z,71.60
2019-02-02T00:21:39.672Z,71.70
2019-02-02T00:23:43.553Z,71.80
2019-02-02T00:25:48.095Z,72.50
2019-02-02T00:27:51.000Z,72.00
2019-02-02T00:29:54.176Z,72.00
2019-02-02T00:31:57.052Z,72.10
2019-02-02T00:33:59.960Z,72.20
2019-02-02T00:36:03.387Z,72.20
2019-02-02T00:38:06.483Z,72.20
2019-02-02T00:40:17.551Z,72.40
2019-02-02T00:42:21.247Z,72.30
2019-02-02T00:44:24.135Z,72.20
2019-02-02T00:46:27.789Z,72.90
2019-02-02T00:48:31.114Z,72.30
2019-02-02T00:50:34.008Z,72.30
2019-02-02T00:52:36.988Z,72.40
2019-02-02T00:54:40.679Z,72.50
2019-02-02T00:56:43.579Z,72.40
2019-02-02T00:58:47.821Z,72.60
2019-02-02T01:00:51.162Z,72.50
2019-02-02T01:02:54.148Z,72.50
2019-02-02T01:04:57.131Z,72.60
2019-02-02T01:07:02.220Z,72.70
2019-02-02T01:09:05.104Z,72.60
2019-02-02T01:11:08.035Z,72.60
2019-02-02T01:13:11.711Z,72.60
2019-02-02T01:15:14.602Z,72.60
2019-02-02T01:17:17.602Z,72.60
2019-02-02T01:19:21.390Z,72.70
2019-02-02T01:21:24.391Z,72.60
2019-02-02T01:23:28.055Z,72.70
2019-02-02T01:25:31.160Z,72.60
2019-02-02T01:27:35.395Z,73.40
2019-02-02T01:29:38.379Z,72.70
2019-02-02T01:31:42.588Z,72.90
2019-02-02T01:33:46.239Z,72.80
2019-02-02T01:35:49.155Z,72.70
2019-02-02T01:37:52.946Z,72.80
2019-02-02T01:39:55.997Z,72.70
2019-02-02T01:41:58.919Z,72.70
2019-02-02T01:44:02.597Z,72.70
2019-02-02T01:46:05.498Z,72.70
2019-02-02T01:48:09.199Z,72.70
2019-02-02T01:50:13.203Z,72.60
2019-02-02T01:52:16.861Z,72.80
2019-02-02T01:54:19.751Z,72.70
2019-02-02T01:56:22.762Z,72.60
2019-02-02T01:58:26.363Z,72.60
2019-02-02T02:00:30.215Z,72.60
2019-02-02T02:02:33.249Z,73.40
2019-02-02T02:04:36.242Z,72.70
2019-02-02T02:06:40.251Z,73.10
2019-02-02T02:08:44.549Z,72.90
2019-02-02T02:10:48.257Z,72.80
2019-02-02T02:12:51.249Z,72.90
2019-02-02T02:14:54.225Z,73.00
2019-02-02T02:16:57.215Z,72.90
2019-02-02T02:19:00.876Z,73.10
2019-02-02T02:21:03.886Z,73.00
2019-02-02T02:23:06.787Z,73.10
2019-02-02T02:25:10.436Z,73.20
2019-02-02T02:27:13.566Z,73.10
2019-02-02T02:29:17.347Z,73.30
2019-02-02T02:31:20.249Z,73.20
2019-02-02T02:33:23.949Z,73.30
2019-02-02T02:35:27.598Z,73.30
2019-02-02T02:37:30.517Z,73.10
2019-02-02T02:39:33.452Z,73.10
2019-02-02T02:41:36.328Z,73.20
2019-02-02T02:43:39.348Z,73.30
2019-02-02T02:45:42.346Z,73.40
2019-02-02T02:47:46.007Z,73.40
2019-02-02T02:49:48.937Z,73.40
2019-02-02T02:51:54.096Z,73.40
2019-02-02T02:53:57.021Z,73.30
2019-02-02T02:55:59.949Z,72.80
2019-02-02T02:58:03.665Z,73.10
2019-02-02T03:00:12.182Z,73.10
2019-02-02T03:02:15.101Z,73.30
2019-02-02T03:04:18.247Z,73.50
2019-02-02T03:06:21.929Z,73.90
2019-02-02T03:08:25.614Z,74.00
2019-02-02T03:10:28.928Z,73.90
2019-02-02T03:12:32.612Z,74.10
2019-02-02T03:14:36.296Z,74.10
2019-02-02T03:16:39.254Z,74.10
2019-02-02T03:18:42.161Z,74.20
2019-02-02T03:20:45.135Z,74.30
2019-02-02T03:22:48.480Z,74.30
2019-02-02T03:24:51.393Z,74.30
2019-02-02T03:26:54.316Z,74.40
2019-02-02T03:28:58.021Z,74.50
2019-02-02T03:31:01.730Z,74.50
2019-02-02T03:33:05.422Z,74.50
2019-02-02T03:35:09.120Z,74.70
2019-02-02T03:37:12.799Z,74.60
2019-02-02T03:39:15.716Z,74.50
2019-02-02T03:41:19.416Z,74.60
2019-02-02T03:43:22.341Z,74.40
2019-02-02T03:45:25.314Z,74.60
2019-02-02T03:47:28.472Z,74.50
2019-02-02T03:49:31.391Z,74.50
2019-02-02T03:51:34.334Z,74.50
2019-02-02T03:53:41.015Z,74.60
2019-02-02T03:55:40.973Z,74.70
2019-02-02T03:57:43.899Z,74.60
2019-02-02T03:59:46.853Z,74.60
2019-02-02T04:01:50.686Z,74.70
2019-02-02T04:03:53.618Z,74.60
2019-02-02T04:05:56.760Z,74.60
2019-02-02T04:07:59.677Z,74.40
2019-02-02T04:10:02.593Z,74.50
2019-02-02T04:12:06.314Z,74.70
2019-02-02T04:14:09.988Z,75.40
2019-02-02T04:16:13.676Z,74.80
2019-02-02T04:18:17.407Z,75.00
2019-02-02T04:20:21.095Z,75.00
2019-02-02T04:22:24.869Z,75.00
2019-02-02T04:24:27.824Z,74.80
2019-02-02T04:26:31.583Z,75.00
2019-02-02T04:28:35.252Z,75.00
2019-02-02T04:30:38.286Z,75.00
2019-02-02T04:32:41.205Z,75.00
2019-02-02T04:34:44.126Z,75.00
2019-02-02T04:36:47.941Z,75.10
2019-02-02T04:38:51.627Z,75.00
2019-02-02T04:40:54.533Z,75.00
2019-02-02T04:42:57.465Z,75.00
2019-02-02T04:45:00.380Z,74.90
2019-02-02T04:47:04.057Z,75.00
2019-02-02T04:49:07.491Z,74.90
2019-02-02T04:51:10.309Z,74.90
2019-02-02T04:53:13.221Z,74.90
2019-02-02T04:55:17.049Z,75.80
2019-02-02T04:57:19.969Z,75.00
2019-02-02T04:59:29.398Z,75.00
2019-02-02T05:01:26.000Z,75.10
2019-02-02T05:03:28.926Z,75.10
2019-02-02T05:05:31.936Z,75.00
2019-02-02T05:07:34.876Z,75.00
2019-02-02T05:09:37.785Z,75.00
2019-02-02T05:11:40.694Z,75.10
2019-02-02T05:13:43.995Z,75.10
2019-02-02T05:15:46.933Z,75.20
2019-02-02T05:17:51.374Z,75.30
2019-02-02T05:19:55.092Z,75.30
2019-02-02T05:21:58.013Z,75.20
2019-02-02T05:24:01.113Z,75.20
2019-02-02T05:26:04.058Z,75.20
2019-02-02T05:28:06.969Z,75.20
2019-02-02T05:30:11.548Z,75.20
2019-02-02T05:32:14.491Z,75.20
2019-02-02T05:34:17.398Z,75.20
2019-02-02T05:36:21.082Z,75.10
2019-02-02T05:38:24.909Z,75.20
2019-02-02T05:40:27.839Z,75.10
2019-02-02T05:42:30.763Z,75.20
2019-02-02T05:44:34.631Z,76.10
2019-02-02T05:46:37.617Z,75.30
2019-02-02T05:48:40.538Z,75.40
2019-02-02T05:50:43.474Z,75.30
2019-02-02T05:52:46.397Z,75.50
2019-02-02T05:54:50.074Z,75.60
2019-02-02T05:56:53.203Z,75.60
2019-02-02T05:58:56.378Z,75.60
2019-02-02T06:00:59.293Z,75.60
2019-02-02T06:03:02.241Z,75.60
2019-02-02T06:05:05.173Z,75.70
2019-02-02T06:07:08.081Z,75.70
2019-02-02T06:09:11.922Z,75.80
2019-02-02T06:11:14.846Z,75.70
2019-02-02T06:13:17.773Z,75.70
2019-02-02T06:15:20.729Z,75.80
2019-02-02T06:17:24.417Z,75.90
2019-02-02T06:19:28.115Z,75.60
2019-02-02T06:21:31.070Z,75.80
2019-02-02T06:23:34.060Z,75.90
2019-02-02T06:25:36.973Z,75.90
2019-02-02T06:27:39.980Z,75.90
2019-02-02T06:29:42.914Z,75.90
2019-02-02T06:31:45.829Z,75.90
2019-02-02T06:33:49.557Z,75.90
2019-02-02T06:35:52.477Z,75.90
2019-02-02T06:37:55.398Z,76.00
2019-02-02T06:39:59.106Z,76.00
2019-02-02T06:42:02.781Z,75.90
2019-02-02T06:44:06.476Z,75.90
2019-02-02T06:46:09.597Z,75.90
2019-02-02T06:48:12.524Z,75.90
2019-02-02T06:50:15.437Z,75.90
2019-02-02T06:52:19.569Z,76.00
2019-02-02T06:54:23.350Z,75.90
2019-02-02T06:56:27.029Z,76.00
2019-02-02T06:58:29.969Z,76.00
2019-02-02T07:00:32.889Z,76.00
2019-02-02T07:02:35.792Z,76.10
2019-02-02T07:04:39.625Z,76.20
2019-02-02T07:06:43.297Z,76.20
2019-02-02T07:08:46.273Z,76.10
2019-02-02T07:10:49.986Z,76.20
2019-02-02T07:12:53.675Z,76.30
2019-02-02T07:14:57.353Z,76.20
2019-02-02T07:17:00.313Z,76.20
2019-02-02T07:19:03.234Z,76.10
2019-02-02T07:21:06.147Z,76.10
2019-02-02T07:23:09.097Z,76.10
2019-02-02T07:25:12.786Z,76.10
2019-02-02T07:27:15.715Z,76.00
2019-02-02T07:29:18.798Z,76.00
2019-02-02T07:31:21.710Z,76.00
2019-02-02T07:33:24.618Z,76.00
2019-02-02T07:35:27.553Z,76.00
2019-02-02T07:37:30.527Z,76.00
2019-02-02T07:39:34.201Z,76.00
2019-02-02T07:41:41.131Z,76.00
2019-02-02T07:43:41.974Z,76.00
2019-02-02T07:45:44.909Z,76.00
2019-02-02T07:47:47.913Z,76.00
2019-02-02T07:49:50.850Z,76.00
2019-02-02T07:51:53.766Z,76.00
2019-02-02T07:53:56.791Z,76.00
2019-02-02T07:56:02.365Z,76.00
2019-02-02T07:58:06.066Z,76.00
2019-02-02T08:00:12.529Z,75.90
2019-02-02T08:02:16.215Z,76.00
2019-02-02T08:04:19.122Z,75.90
2019-02-02T08:06:22.837Z,75.90
2019-02-02T08:08:25.758Z,75.90
2019-02-02T08:10:28.680Z,75.90
2019-02-02T08:12:32.400Z,76.00
2019-02-02T08:14:35.301Z,75.90
2019-02-02T08:16:38.413Z,75.90
2019-02-02T08:18:41.330Z,75.90
2019-02-02T08:20:45.010Z,76.00
2019-02-02T08:22:48.431Z,75.90
2019-02-02T08:24:53.905Z,75.90
2019-02-02T08:26:56.838Z,75.90
2019-02-02T08:28:59.768Z,75.90
2019-02-02T08:31:03.509Z,76.00
2019-02-02T08:33:06.631Z,76.00
2019-02-02T08:35:10.302Z,76.00
2019-02-02T08:37:13.215Z,76.00
2019-02-02T08:39:28.658Z,76.10
2019-02-02T08:41:22.478Z,76.10
2019-02-02T08:43:26.537Z,76.20
2019-02-02T08:45:30.420Z,76.20
2019-02-02T08:47:34.267Z,76.20
2019-02-02T08:49:40.222Z,76.10
2019-02-02T08:51:43.400Z,76.20
2019-02-02T08:53:48.786Z,76.20
2019-02-02T08:55:56.944Z,76.20
2019-02-02T08:58:02.954Z,76.20
2019-02-02T09:00:10.750Z,76.20
2019-02-02T09:02:13.788Z,76.20
2019-02-02T09:04:16.764Z,76.20
2019-02-02T09:06:19.628Z,76.20
2019-02-02T09:08:23.353Z,76.70
2019-02-02T09:10:27.117Z,76.10
2019-02-02T09:12:30.807Z,76.60
2019-02-02T09:14:33.742Z,76.20
2019-02-02T09:16:36.657Z,76.10
2019-02-02T09:18:39.697Z,76.10
2019-02-02T09:20:42.640Z,76.10
2019-02-02T09:22:45.561Z,76.00
2019-02-02T09:24:51.846Z,75.90
2019-02-02T09:26:52.202Z,75.90
2019-02-02T09:28:55.125Z,76.00
2019-02-02T09:30:58.906Z,75.90
2019-02-02T09:33:02.597Z,75.90
2019-02-02T09:35:05.513Z,75.80
2019-02-02T09:37:08.473Z,75.80
2019-02-02T09:39:12.150Z,75.70
2019-02-02T09:41:15.102Z,75.70
2019-02-02T09:43:18.029Z,75.70
2019-02-02T09:45:21.773Z,75.90
2019-02-02T09:47:24.837Z,75.70
2019-02-02T09:49:27.757Z,75.80
2019-02-02T09:51:30.756Z,75.80
2019-02-02T09:53:33.710Z,75.80
2019-02-02T09:55:36.629Z,75.80
2019-02-02T09:57:39.551Z,76.00
2019-02-02T09:59:43.262Z,76.00
2019-02-02T10:01:46.174Z,76.00
2019-02-02T10:03:49.218Z,76.00
2019-02-02T10:05:52.909Z,76.10
2019-02-02T10:07:56.587Z,76.20
2019-02-02T10:10:00.411Z,76.30
2019-02-02T10:12:03.236Z,76.20
2019-02-02T10:14:06.150Z,76.30
2019-02-02T10:16:09.861Z,76.40
2019-02-02T10:18:13.559Z,76.40
2019-02-02T10:20:21.060Z,76.50
2019-02-02T10:22:24.742Z,76.50
2019-02-02T10:24:28.791Z,77.20
2019-02-02T10:26:32.165Z,76.40
2019-02-02T10:28:35.128Z,76.30
2019-02-02T10:30:38.845Z,76.40
2019-02-02T10:32:42.523Z,76.30
2019-02-02T10:34:45.519Z,76.30
2019-02-02T10:36:49.220Z,76.40
2019-02-02T10:38:52.903Z,76.30
2019-02-02T10:40:56.628Z,76.30
2019-02-02T10:43:00.342Z,76.30
2019-02-02T10:45:03.266Z,76.30
2019-02-02T10:47:06.980Z,76.10
2019-02-02T10:49:10.696Z,76.10
2019-02-02T10:51:14.387Z,76.10
2019-02-02T10:53:18.182Z,76.00
2019-02-02T10:55:21.090Z,75.90
2019-02-02T10:57:24.780Z,75.80
2019-02-02T10:59:28.707Z,75.90
2019-02-02T11:01:31.635Z,75.80
2019-02-02T11:03:34.545Z,75.80
2019-02-02T11:05:38.403Z,75.90
2019-02-02T11:07:41.200Z,75.80
2019-02-02T11:09:44.108Z,75.70
2019-02-02T11:11:47.909Z,75.70
2019-02-02T11:13:51.519Z,75.60
2019-02-02T11:15:55.323Z,75.50
2019-02-02T11:17:58.371Z,75.40
2019-02-02T11:20:01.302Z,75.40
2019-02-02T11:22:04.359Z,75.30
2019-02-02T11:24:07.221Z,75.10
2019-02-02T11:26:10.468Z,75.10
2019-02-02T11:28:13.991Z,75.00
2019-02-02T11:30:17.873Z,74.80
2019-02-02T11:32:20.671Z,74.20
2019-02-02T11:34:23.622Z,74.20
2019-02-02T11:36:26.541Z,74.40
2019-02-02T11:38:29.583Z,74.60
2019-02-02T11:40:32.568Z,74.70
2019-02-02T11:42:35.489Z,74.80
2019-02-02T11:44:38.430Z,74.80
2019-02-02T11:46:41.365Z,74.80
2019-02-02T11:48:44.299Z,74.90
2019-02-02T11:50:47.292Z,74.90
2019-02-02T11:52:50.243Z,74.80
2019-02-02T11:54:53.172Z,74.80
2019-02-02T11:56:56.145Z,74.90
2019-02-02T11:58:59.074Z,74.80
2019-02-02T12:01:02.029Z,75.40
2019-02-02T12:03:04.974Z,74.60
2019-02-02T12:05:07.903Z,74.60
2019-02-02T12:07:11.635Z,74.60
2019-02-02T12:09:15.334Z,74.40
2019-02-02T12:11:19.026Z,74.30
2019-02-02T12:13:22.774Z,74.30
2019-02-02T12:15:25.690Z,74.20
2019-02-02T12:17:28.625Z,74.10
2019-02-02T12:19:31.703Z,74.10
2019-02-02T12:21:34.611Z,74.10
2019-02-02T12:23:37.601Z,74.00
2019-02-02T12:25:40.561Z,74.10
2019-02-02T12:27:43.487Z,74.10
2019-02-02T12:29:46.411Z,74.00
2019-02-02T12:31:49.354Z,74.00
2019-02-02T12:33:52.281Z,74.00
2019-02-02T12:35:55.221Z,73.90
2019-02-02T12:37:58.929Z,73.70
2019-02-02T12:40:02.621Z,73.70
2019-02-02T12:42:06.353Z,73.70
2019-02-02T12:44:10.114Z,74.00
2019-02-02T12:46:13.059Z,73.60
2019-02-02T12:48:16.013Z,73.60
2019-02-02T12:50:18.950Z,73.60
2019-02-02T12:52:25.417Z,73.60
2019-02-02T12:54:26.493Z,73.60
2019-02-02T12:56:29.422Z,73.50
2019-02-02T12:58:32.717Z,73.60
2019-02-02T13:00:35.633Z,73.60
2019-02-02T13:02:39.333Z,73.60
2019-02-02T13:04:43.261Z,73.70
2019-02-02T13:06:47.042Z,73.60
2019-02-02T13:08:50.741Z,73.70
2019-02-02T13:10:54.473Z,73.70
2019-02-02T13:12:57.491Z,73.60
2019-02-02T13:15:01.111Z,73.70
2019-02-02T13:17:04.069Z,73.70
2019-02-02T13:19:06.994Z,73.00
2019-02-02T13:21:10.717Z,73.70
2019-02-02T13:23:13.641Z,73.70
2019-02-02T13:25:17.437Z,73.70
2019-02-02T13:27:20.477Z,73.70
2019-02-02T13:29:23.413Z,73.80
2019-02-02T13:31:26.344Z,73.80
2019-02-02T13:33:29.441Z,73.80
2019-02-02T13:35:33.009Z,74.80
2019-02-02T13:37:36.708Z,74.00
2019-02-02T13:39:40.409Z,74.10
2019-02-02T13:41:44.183Z,74.10
2019-02-02T13:43:47.838Z,74.00
2019-02-02T13:45:50.746Z,74.00
2019-02-02T13:47:53.739Z,74.00
2019-02-02T13:49:56.680Z,74.00
2019-02-02T13:51:59.589Z,74.00
2019-02-02T13:54:02.505Z,74.00
2019-02-02T13:56:06.225Z,74.00
2019-02-02T13:58:09.912Z,74.00
2019-02-02T14:00:29.822Z,74.70
2019-02-02T14:02:32.742Z,73.90
2019-02-02T14:04:35.664Z,73.80
2019-02-02T14:06:45.326Z,73.90
2019-02-02T14:08:48.257Z,73.90
2019-02-02T14:10:51.271Z,73.90
2019-02-02T14:12:54.948Z,74.00
2019-02-02T14:14:57.929Z,74.00
2019-02-02T14:17:00.858Z,74.00
2019-02-02T14:19:03.769Z,74.00
2019-02-02T14:21:06.687Z,74.00
2019-02-02T14:23:12.483Z,73.90
2019-02-02T14:25:16.090Z,73.90
2019-02-02T14:27:19.006Z,74.00
2019-02-02T14:29:21.942Z,74.00
2019-02-02T14:31:24.853Z,74.00
2019-02-02T14:33:28.209Z,74.00
2019-02-02T14:35:31.134Z,74.10
2019-02-02T14:37:34.053Z,74.10
2019-02-02T14:39:36.993Z,74.10
2019-02-02T14:41:39.915Z,74.20
2019-02-02T14:43:42.852Z,74.20
2019-02-02T14:45:47.620Z,74.30
2019-02-02T14:47:50.538Z,74.30
2019-02-02T14:49:53.469Z,74.30
2019-02-02T14:51:56.414Z,74.20
2019-02-02T14:53:59.411Z,74.30
2019-02-02T14:56:02.411Z,74.20
2019-02-02T14:58:06.097Z,75.10
2019-02-02T15:00:10.615Z,74.30
2019-02-02T15:02:13.570Z,74.30
2019-02-02T15:04:16.494Z,74.30
2019-02-02T15:06:20.197Z,74.40
2019-02-02T15:08:23.917Z,74.30
2019-02-02T15:10:26.844Z,74.20
2019-02-02T15:12:29.765Z,74.20
2019-02-02T15:14:33.474Z,74.50
2019-02-02T15:16:37.228Z,74.40
2019-02-02T15:18:40.173Z,74.40
2019-02-02T15:20:43.094Z,74.40
2019-02-02T15:22:46.013Z,74.50
2019-02-02T15:24:49.749Z,74.60
2019-02-02T15:26:52.677Z,74.60
2019-02-02T15:28:55.609Z,74.60
2019-02-02T15:30:58.553Z,74.60
2019-02-02T15:33:02.261Z,74.80
2019-02-02T15:35:05.962Z,74.80
2019-02-02T15:37:09.678Z,74.80
2019-02-02T15:39:12.599Z,74.70
2019-02-02T15:41:15.737Z,74.80
2019-02-02T15:43:18.903Z,74.80
2019-02-02T15:45:22.741Z,74.90
2019-02-02T15:47:25.824Z,74.90
2019-02-02T15:49:28.746Z,75.00
2019-02-02T15:51:39.995Z,75.10
2019-02-02T15:53:34.625Z,75.10
2019-02-02T15:55:37.538Z,75.10
2019-02-02T15:57:40.468Z,75.10
2019-02-02T15:59:43.429Z,75.20
2019-02-02T16:01:46.361Z,75.20
2019-02-02T16:03:50.162Z,75.30
2019-02-02T16:05:53.777Z,75.30
2019-02-02T16:07:57.464Z,75.40
2019-02-02T16:10:01.149Z,75.80
2019-02-02T16:12:04.482Z,75.40
2019-02-02T16:14:07.428Z,75.40
2019-02-02T16:16:10.350Z,75.50
2019-02-02T16:18:13.294Z,75.40
2019-02-02T16:20:19.944Z,75.50
2019-02-02T16:22:22.857Z,75.70
2019-02-02T16:24:26.577Z,75.70
2019-02-02T16:26:29.524Z,75.60
2019-02-02T16:28:33.274Z,75.70
2019-02-02T16:30:36.197Z,75.60
2019-02-02T16:32:39.126Z,75.60
2019-02-02T16:34:42.080Z,75.60
2019-02-02T16:36:45.782Z,75.90
2019-02-02T16:38:49.469Z,75.90
2019-02-02T16:40:52.533Z,75.80
2019-02-02T16:42:55.486Z,75.70
2019-02-02T16:44:58.412Z,75.80
2019-02-02T16:47:01.446Z,75.80
2019-02-02T16:49:04.358Z,75.90
2019-02-02T16:51:07.289Z,75.90
2019-02-02T16:53:11.014Z,76.00
2019-02-02T16:55:13.941Z,75.90
2019-02-02T16:57:16.953Z,75.90
2019-02-02T16:59:20.673Z,76.10
2019-02-02T17:01:23.602Z,76.10
2019-02-02T17:03:26.534Z,76.10
2019-02-02T17:05:29.613Z,76.30
2019-02-02T17:07:32.534Z,77.00
2019-02-02T17:09:35.455Z,76.30
2019-02-02T17:11:39.174Z,76.50
2019-02-02T17:13:42.861Z,76.40
2019-02-02T17:15:46.286Z,76.30
2019-02-02T17:17:49.350Z,76.30
2019-02-02T17:19:54.899Z,76.50
2019-02-02T17:21:56.760Z,76.50
2019-02-02T17:23:59.669Z,76.50
2019-02-02T17:26:02.585Z,76.50
2019-02-02T17:28:05.534Z,76.60
2019-02-02T17:30:12.336Z,76.60
2019-02-02T17:32:16.106Z,76.80
2019-02-02T17:34:27.287Z,77.50
2019-02-02T17:36:25.215Z,76.70
2019-02-02T17:38:28.288Z,76.80
2019-02-02T17:40:33.143Z,77.00
2019-02-02T17:42:36.898Z,77.20
2019-02-02T17:44:39.818Z,77.00
2019-02-02T17:46:43.515Z,77.30
2019-02-02T17:48:47.297Z,77.30
2019-02-02T17:50:50.985Z,77.40
2019-02-02T17:52:54.920Z,77.60
2019-02-02T17:54:57.848Z,77.50
2019-02-02T17:57:00.761Z,77.60
2019-02-02T17:59:04.534Z,77.60
2019-02-02T18:01:07.411Z,77.60
2019-02-02T18:03:10.357Z,77.70
2019-02-02T18:05:13.437Z,77.80
2019-02-02T18:07:16.369Z,77.90
2019-02-02T18:09:19.299Z,77.90
2019-02-02T18:11:22.241Z,78.00
2019-02-02T18:13:25.158Z,78.00
2019-02-02T18:15:28.838Z,78.20
2019-02-02T18:17:32.674Z,78.10
2019-02-02T18:19:35.611Z,78.10
2019-02-02T18:21:38.532Z,78.10
2019-02-02T18:23:41.481Z,78.20
2019-02-02T18:25:45.182Z,78.40
2019-02-02T18:27:48.160Z,78.40
2019-02-02T18:29:51.114Z,78.40
2019-02-02T18:31:54.034Z,78.50
2019-02-02T18:33:57.713Z,79.20
2019-02-02T18:36:00.664Z,78.60
2019-02-02T18:38:03.585Z,78.70
2019-02-02T18:40:15.009Z,78.80
2019-02-02T18:42:18.398Z,78.70
2019-02-02T18:44:21.318Z,78.70
2019-02-02T18:46:24.234Z,78.70
2019-02-02T18:48:27.949Z,79.00
2019-02-02T18:50:31.633Z,79.10
2019-02-02T18:52:35.330Z,79.20
2019-02-02T18:54:38.269Z,79.10
2019-02-02T18:56:41.199Z,79.10
2019-02-02T18:58:44.887Z,79.20
2019-02-02T19:00:47.839Z,79.10
2019-02-02T19:02:50.756Z,79.10
2019-02-02T19:05:03.284Z,79.00
2019-02-02T19:06:57.399Z,79.00
2019-02-02T19:09:00.334Z,78.90
2019-02-02T19:11:04.025Z,79.10
2019-02-02T19:13:07.734Z,79.20
2019-02-02T19:15:11.908Z,79.30
2019-02-02T19:17:14.881Z,79.20
2019-02-02T19:19:17.929Z,79.20
2019-02-02T19:21:20.884Z,79.20
2019-02-02T19:23:25.649Z,79.30
2019-02-02T19:25:28.411Z,79.30
2019-02-02T19:27:31.333Z,79.30
2019-02-02T19:29:34.253Z,79.20
2019-02-02T19:31:37.980Z,79.10
2019-02-02T19:33:40.891Z,79.10
2019-02-02T19:35:43.845Z,79.00
2019-02-02T19:37:46.809Z,79.10
2019-02-02T19:39:50.503Z,79.20
2019-02-02T19:41:54.359Z,79.20
2019-02-02T19:43:57.292Z,79.20
2019-02-02T19:46:00.979Z,79.20
2019-02-02T19:48:04.694Z,79.30
2019-02-02T19:50:07.630Z,79.20
2019-02-02T19:52:10.549Z,79.20
2019-02-02T19:54:14.275Z,79.20
2019-02-02T19:56:17.186Z,79.20
2019-02-02T19:58:20.115Z,79.10
2019-02-02T20:00:23.846Z,79.20
2019-02-02T20:02:26.766Z,79.10
2019-02-02T20:04:29.698Z,79.10
2019-02-02T20:06:32.630Z,79.10
2019-02-02T20:08:35.615Z,79.10
2019-02-02T20:10:38.541Z,79.10
2019-02-02T20:12:41.625Z,79.00
2019-02-02T20:14:45.302Z,79.00
2019-02-02T20:16:49.019Z,79.10
2019-02-02T20:18:51.965Z,79.00
2019-02-02T20:20:54.869Z,79.00
2019-02-02T20:22:57.788Z,79.00
2019-02-02T20:25:01.151Z,79.00
2019-02-02T20:27:04.831Z,79.10
2019-02-02T20:29:07.757Z,79.00
2019-02-02T20:31:10.692Z,79.00
2019-02-02T20:33:13.605Z,79.00
2019-02-02T20:35:16.525Z,78.70
2019-02-02T20:37:19.574Z,78.70
2019-02-02T20:39:22.494Z,78.70
2019-02-02T20:41:25.468Z,78.70
2019-02-02T20:43:28.417Z,78.70
2019-02-02T20:45:31.338Z,78.80
2019-02-02T20:47:34.282Z,78.80
2019-02-02T20:49:37.378Z,78.80
2019-02-02T20:51:40.313Z,78.90
2019-02-02T20:53:43.263Z,78.80
2019-02-02T20:55:47.027Z,78.90
2019-02-02T20:57:49.965Z,78.80
2019-02-02T20:59:52.906Z,78.90
2019-02-02T21:01:55.884Z,78.80
2019-02-02T21:03:58.801Z,78.80
2019-02-02T21:06:01.719Z,78.80
2019-02-02T21:08:05.430Z,79.00
2019-02-02T21:10:09.122Z,78.70
2019-02-02T21:12:12.818Z,78.80
2019-02-02T21:14:16.962Z,78.70
2019-02-02T21:16:19.904Z,78.70
2019-02-02T21:18:23.601Z,78.70
2019-02-02T21:20:28.129Z,79.30
2019-02-02T21:22:31.830Z,78.80
2019-02-02T21:24:35.525Z,78.70
2019-02-02T21:26:39.259Z,78.60
2019-02-02T21:28:50.105Z,78.40
2019-02-02T21:30:45.998Z,78.50
2019-02-02T21:32:49.050Z,78.50
2019-02-02T21:34:52.795Z,78.60
2019-02-02T21:36:55.721Z,78.40
2019-02-02T21:38:59.100Z,78.50
2019-02-02T21:41:02.017Z,78.60
2019-02-02T21:43:04.925Z,78.60
2019-02-02T21:45:09.687Z,78.70
2019-02-02T21:47:12.606Z,78.60
2019-02-02T21:49:15.530Z,78.60
2019-02-02T21:51:19.343Z,78.60
2019-02-02T21:53:22.166Z,78.60
2019-02-02T21:55:26.248Z,78.50
2019-02-02T21:57:29.169Z,78.60
2019-02-02T21:59:32.082Z,78.60
2019-02-02T22:01:35.793Z,78.60
2019-02-02T22:03:38.720Z,78.50
2019-02-02T22:05:41.669Z,78.40
2019-02-02T22:07:47.273Z,78.40
2019-02-02T22:09:47.513Z,78.40
2019-02-02T22:11:51.341Z,78.50
2019-02-02T22:13:54.265Z,78.50
2019-02-02T22:15:57.189Z,78.50
2019-02-02T22:18:00.902Z,78.60
2019-02-02T22:20:04.670Z,78.60
2019-02-02T22:22:08.381Z,78.70
2019-02-02T22:24:12.131Z,78.80
2019-02-02T22:26:15.057Z,78.70
2019-02-02T22:28:18.777Z,78.90
2019-02-02T22:30:26.349Z,78.80
2019-02-02T22:32:30.034Z,78.90
2019-02-02T22:34:33.734Z,78.80
2019-02-02T22:36:36.702Z,78.80
2019-02-02T22:38:39.625Z,78.80
2019-02-02T22:40:43.314Z,78.90
2019-02-02T22:42:47.133Z,78.90
2019-02-02T22:44:50.072Z,78.80
2019-02-02T22:46:52.992Z,78.70
2019-02-02T22:48:55.952Z,78.70
2019-02-02T22:50:59.640Z,79.30
2019-02-02T22:53:02.589Z,78.70
2019-02-02T22:55:05.516Z,78.80
2019-02-02T22:57:09.206Z,79.50
2019-02-02T22:59:13.677Z,78.80
2019-02-02T23:01:16.606Z,78.70
2019-02-02T23:03:24.350Z,78.80
2019-02-02T23:05:45.026Z,78.80
2019-02-02T23:07:49.585Z,78.50
2019-02-02T23:10:13.068Z,78.50
2019-02-02T23:12:26.485Z,78.50
2019-02-02T23:14:46.974Z,78.40
2019-02-02T23:16:49.894Z,78.50
2019-02-02T23:18:52.849Z,78.40
2019-02-02T23:20:55.770Z,78.60
2019-02-02T23:22:59.569Z,78.70
2019-02-02T23:25:02.490Z,78.60
2019-02-02T23:27:05.425Z,78.60
2019-02-02T23:29:09.139Z,78.60
2019-02-02T23:31:12.075Z,78.50
2019-02-02T23:33:15.004Z,78.50
2019-02-02T23:35:18.713Z,78.60
2019-02-02T23:37:21.651Z,78.60
2019-02-02T23:39:24.575Z,78.50
2019-02-02T23:41:28.275Z,78.50
2019-02-02T23:43:31.953Z,78.50
2019-02-02T23:45:34.863Z,78.30
2019-02-02T23:47:37.801Z,78.40
2019-02-02T23:49:40.711Z,78.30
2019-02-02T23:51:44.398Z,78.40
2019-02-02T23:53:48.118Z,78.50
2019-02-02T23:55:51.806Z,78.40
2019-02-02T23:57:55.502Z,78.50
2019-02-02T23:59:58.603Z,78.40
